Insider Stock Trading History of Gage L Patrick


The following table details the trading activities (stock purchases, stock sales, and stock option exercises) reported to the Securities and Exchange Commission (SEC) by insider Gage L Patrick since year 2005. The trader's CIK number is 1196903. At the time of this reporting, Gage L Patrick is the Director of Cytokinetics Inc . (stock ticker symbol CYTK). See this page for all insider trading activities at Cytokinetics Inc .

Note that in the past GAGE L PATRICK also reported insider trading activities as an insider of the following companies:
Stock purchases, sales, and option exercises reported by insider Gage L Patrick since 2005.
  Trade Date   Symbol Company Name (Issuer) Trade Type     Shares       Price ($)   Value ($)
2017-10-02 CYTK Cytokinetics Inc Option Ex 5,000 4.02 20,099
2017-10-02 CYTK Cytokinetics Inc Sale 5,000 14.55 72,770
2017-09-01 CYTK Cytokinetics Inc Option Ex 5,000 4.02 20,099
2017-09-01 CYTK Cytokinetics Inc Sale 5,000 14.73 73,655
2017-08-29 CYTK Cytokinetics Inc Option Ex 5,000 4.02 20,099
2017-08-29 CYTK Cytokinetics Inc Sale 5,000 14.00 70,000
2017-03-15 TTPH Tetraphase Pharmaceuticals Inc Buy 11,000 7.48 82,280
2015-10-02 TTPH Tetraphase Pharmaceuticals Inc Option Ex 20,000 2.03 40,599
2015-08-31 CYTK Cytokinetics Inc Buy 1,000 6.95 6,950
2015-08-20 CYTK Cytokinetics Inc Buy 10,000 6.51 65,100
2015-08-12 TTPH Tetraphase Pharmaceuticals Inc Option Ex 15,000 7.07 106,050
2015-08-12 TTPH Tetraphase Pharmaceuticals Inc Sale 15,000 45.00 675,000
2015-05-06 CYTK Cytokinetics Inc Buy 10,000 5.71 57,070
2014-06-13 TTPH Tetraphase Pharmaceuticals Inc Buy 500 11.42 5,710
2014-06-05 TTPH Tetraphase Pharmaceuticals Inc Buy 975 10.28 10,026
2014-06-04 TTPH Tetraphase Pharmaceuticals Inc Buy 500 10.05 5,025
2014-05-28 TTPH Tetraphase Pharmaceuticals Inc Buy 850 10.70 9,095
2014-05-14 TTPH Tetraphase Pharmaceuticals Inc Buy 5,000 9.25 46,250
2014-05-09 CYTK Cytokinetics Inc Buy 10,850 4.09 44,430
2009-01-27 NTEC Neose Technologies Inc Option Ex 8,197 .00 0
2008-04-28 PDLI Protein Design Labs Inc/de Option Ex 12,000 7.01 84,120
2007-06-08 NTEC Neose Technologies Inc Buy 15,050 2.60 39,130
2007-06-07 NTEC Neose Technologies Inc Buy 13,900 2.59 36,001
2007-06-11 NTEC Neose Technologies Inc Buy 10,550 2.60 27,430
2007-03-26 NTEC Neose Technologies Inc Buy 15,000 2.04 30,525
2007-03-26 NTEC Neose Technologies Inc Buy 15,000 2.04 30,525
2005-05-05 PDLI Protein Design Labs Inc/de Buy 5,555 18.05 100,239
2005-05-05 NTEC Neose Technologies Inc Buy 9,200 2.78 25,566

Insider trading activities including stock purchases, stock sales, and option exercises listed in the above table cannot be completely guaranteed as to their accuracy. For more information regarding the trades made by Gage L Patrick (Director of Cytokinetics Inc at the time of this reporting) see the Securities and Exchange Commission (SEC) website.